sensor_id;sensor_type;location;lat;lon;timestamp;P1;durP1;ratioP1;P2;durP2;ratioP2
6823;SDS011;58633;49.470;11.004;2023-02-13T00:01:55;38.00;;;20.93;;
6823;SDS011;58633;49.470;11.004;2023-02-13T00:04:21;37.17;;;18.83;;
6823;SDS011;58633;49.470;11.004;2023-02-13T00:06:47;35.90;;;19.60;;
6823;SDS011;58633;49.470;11.004;2023-02-13T00:09:13;35.07;;;19.30;;
6823;SDS011;58633;49.470;11.004;2023-02-13T00:11:39;35.63;;;18.90;;
6823;SDS011;58633;49.470;11.004;2023-02-13T00:14:04;35.47;;;19.30;;
6823;SDS011;58633;49.470;11.004;2023-02-13T00:16:33;37.13;;;19.13;;
6823;SDS011;58633;49.470;11.004;2023-02-13T00:18:58;35.87;;;20.77;;
6823;SDS011;58633;49.470;11.004;2023-02-13T00:21:24;36.33;;;20.57;;
6823;SDS011;58633;49.470;11.004;2023-02-13T00:23:50;37.77;;;19.97;;
6823;SDS011;58633;49.470;11.004;2023-02-13T00:26:15;39.63;;;20.70;;
6823;SDS011;58633;49.470;11.004;2023-02-13T00:28:42;38.47;;;19.87;;
6823;SDS011;58633;49.470;11.004;2023-02-13T00:31:11;39.87;;;21.13;;
6823;SDS011;58633;49.470;11.004;2023-02-13T00:33:38;41.90;;;22.10;;
6823;SDS011;58633;49.470;11.004;2023-02-13T00:36:05;43.13;;;22.27;;
6823;SDS011;58633;49.470;11.004;2023-02-13T00:38:33;40.00;;;21.90;;
6823;SDS011;58633;49.470;11.004;2023-02-13T00:40:59;40.83;;;22.60;;
6823;SDS011;58633;49.470;11.004;2023-02-13T00:43:24;42.33;;;21.57;;
6823;SDS011;58633;49.470;11.004;2023-02-13T00:45:50;36.53;;;19.70;;
6823;SDS011;58633;49.470;11.004;2023-02-13T00:48:15;35.03;;;18.63;;
6823;SDS011;58633;49.470;11.004;2023-02-13T00:50:41;30.30;;;16.80;;
6823;SDS011;58633;49.470;11.004;2023-02-13T00:53:07;30.57;;;17.13;;
6823;SDS011;58633;49.470;11.004;2023-02-13T00:55:33;30.07;;;17.80;;
6823;SDS011;58633;49.470;11.004;2023-02-13T00:57:59;30.17;;;17.13;;
6823;SDS011;58633;49.470;11.004;2023-02-13T01:00:25;26.47;;;16.00;;
6823;SDS011;58633;49.470;11.004;2023-02-13T01:02:51;23.93;;;14.90;;
6823;SDS011;58633;49.470;11.004;2023-02-13T01:05:16;25.53;;;14.17;;
6823;SDS011;58633;49.470;11.004;2023-02-13T01:07:42;25.23;;;14.77;;
6823;SDS011;58633;49.470;11.004;2023-02-13T01:10:08;22.30;;;13.67;;
6823;SDS011;58633;49.470;11.004;2023-02-13T01:12:34;25.13;;;14.40;;
6823;SDS011;58633;49.470;11.004;2023-02-13T01:14:59;22.00;;;12.77;;
6823;SDS011;58633;49.470;11.004;2023-02-13T01:17:25;22.23;;;13.30;;
6823;SDS011;58633;49.470;11.004;2023-02-13T01:19:50;22.77;;;14.17;;
6823;SDS011;58633;49.470;11.004;2023-02-13T01:22:16;22.97;;;13.87;;
6823;SDS011;58633;49.470;11.004;2023-02-13T01:24:41;20.43;;;12.73;;
6823;SDS011;58633;49.470;11.004;2023-02-13T01:27:07;19.20;;;12.60;;
6823;SDS011;58633;49.470;11.004;2023-02-13T01:29:32;21.00;;;13.63;;
6823;SDS011;58633;49.470;11.004;2023-02-13T01:31:58;21.00;;;13.10;;
6823;SDS011;58633;49.470;11.004;2023-02-13T01:34:24;22.87;;;13.47;;
6823;SDS011;58633;49.470;11.004;2023-02-13T01:36:49;21.93;;;12.90;;
6823;SDS011;58633;49.470;11.004;2023-02-13T01:39:15;22.73;;;13.27;;
6823;SDS011;58633;49.470;11.004;2023-02-13T01:41:41;21.03;;;13.30;;
6823;SDS011;58633;49.470;11.004;2023-02-13T01:47:09;21.37;;;12.77;;
6823;SDS011;58633;49.470;11.004;2023-02-13T01:49:38;21.47;;;13.23;;
6823;SDS011;58633;49.470;11.004;2023-02-13T01:52:04;23.00;;;13.20;;
6823;SDS011;58633;49.470;11.004;2023-02-13T01:54:32;19.27;;;12.23;;
6823;SDS011;58633;49.470;11.004;2023-02-13T01:56:59;21.10;;;12.80;;
6823;SDS011;58633;49.470;11.004;2023-02-13T01:59:36;20.70;;;12.23;;
6823;SDS011;58633;49.470;11.004;2023-02-13T02:02:26;19.00;;;12.27;;
6823;SDS011;58633;49.470;11.004;2023-02-13T02:04:55;22.07;;;12.87;;
6823;SDS011;58633;49.470;11.004;2023-02-13T02:07:25;20.10;;;12.23;;
6823;SDS011;58633;49.470;11.004;2023-02-13T02:09:54;23.37;;;12.80;;
6823;SDS011;58633;49.470;11.004;2023-02-13T02:12:42;20.40;;;12.80;;
6823;SDS011;58633;49.470;11.004;2023-02-13T02:15:17;22.60;;;13.47;;
6823;SDS011;58633;49.470;11.004;2023-02-13T02:17:43;22.17;;;13.90;;
6823;SDS011;58633;49.470;11.004;2023-02-13T02:28:58;21.60;;;13.70;;
6823;SDS011;58633;49.470;11.004;2023-02-13T02:31:54;23.63;;;13.90;;
6823;SDS011;58633;49.470;11.004;2023-02-13T02:37:17;21.97;;;13.57;;
6823;SDS011;58633;49.470;11.004;2023-02-13T02:46:07;23.83;;;14.10;;
6823;SDS011;58633;49.470;11.004;2023-02-13T02:48:21;25.13;;;14.83;;
6823;SDS011;58633;49.470;11.004;2023-02-13T02:51:20;26.53;;;14.47;;
6823;SDS011;58633;49.470;11.004;2023-02-13T02:57:20;25.83;;;14.30;;
6823;SDS011;58633;49.470;11.004;2023-02-13T02:59:50;24.00;;;14.23;;
6823;SDS011;58633;49.470;11.004;2023-02-13T03:02:36;26.77;;;14.33;;
6823;SDS011;58633;49.470;11.004;2023-02-13T03:05:21;26.97;;;15.00;;
6823;SDS011;58633;49.470;11.004;2023-02-13T03:08:10;26.97;;;15.03;;
6823;SDS011;58633;49.470;11.004;2023-02-13T03:10:36;28.77;;;15.23;;
6823;SDS011;58633;49.470;11.004;2023-02-13T03:13:54;24.03;;;14.63;;
6823;SDS011;58633;49.470;11.004;2023-02-13T03:16:21;24.93;;;14.10;;
6823;SDS011;58633;49.470;11.004;2023-02-13T03:19:11;25.47;;;14.67;;
6823;SDS011;58633;49.470;11.004;2023-02-13T03:28:05;22.40;;;14.07;;
6823;SDS011;58633;49.470;11.004;2023-02-13T03:34:05;26.50;;;14.97;;
6823;SDS011;58633;49.470;11.004;2023-02-13T03:39:46;25.33;;;14.23;;
6823;SDS011;58633;49.470;11.004;2023-02-13T03:42:44;24.50;;;14.57;;
6823;SDS011;58633;49.470;11.004;2023-02-13T03:45:38;25.20;;;14.13;;
6823;SDS011;58633;49.470;11.004;2023-02-13T03:48:42;25.63;;;13.80;;
6823;SDS011;58633;49.470;11.004;2023-02-13T03:54:22;24.87;;;13.93;;
6823;SDS011;58633;49.470;11.004;2023-02-13T03:57:24;26.67;;;14.43;;
6823;SDS011;58633;49.470;11.004;2023-02-13T04:00:10;21.53;;;13.27;;
6823;SDS011;58633;49.470;11.004;2023-02-13T04:02:44;20.40;;;13.27;;
6823;SDS011;58633;49.470;11.004;2023-02-13T04:05:20;23.60;;;13.17;;
6823;SDS011;58633;49.470;11.004;2023-02-13T04:07:49;20.63;;;13.17;;
6823;SDS011;58633;49.470;11.004;2023-02-13T04:10:15;20.83;;;13.37;;
6823;SDS011;58633;49.470;11.004;2023-02-13T04:12:47;20.13;;;13.03;;
6823;SDS011;58633;49.470;11.004;2023-02-13T04:15:38;21.27;;;13.10;;
6823;SDS011;58633;49.470;11.004;2023-02-13T04:18:18;21.77;;;12.53;;
6823;SDS011;58633;49.470;11.004;2023-02-13T04:20:46;19.70;;;12.37;;
6823;SDS011;58633;49.470;11.004;2023-02-13T04:23:12;19.03;;;11.80;;
6823;SDS011;58633;49.470;11.004;2023-02-13T04:25:38;21.53;;;13.03;;
6823;SDS011;58633;49.470;11.004;2023-02-13T04:28:06;18.10;;;12.23;;
6823;SDS011;58633;49.470;11.004;2023-02-13T04:30:31;20.20;;;12.60;;
6823;SDS011;58633;49.470;11.004;2023-02-13T04:32:57;19.57;;;12.10;;
6823;SDS011;58633;49.470;11.004;2023-02-13T04:35:23;18.47;;;11.83;;
6823;SDS011;58633;49.470;11.004;2023-02-13T04:37:48;19.07;;;12.67;;
6823;SDS011;58633;49.470;11.004;2023-02-13T04:40:14;17.47;;;11.53;;
6823;SDS011;58633;49.470;11.004;2023-02-13T04:42:39;20.57;;;12.37;;
6823;SDS011;58633;49.470;11.004;2023-02-13T04:45:05;19.53;;;12.00;;
6823;SDS011;58633;49.470;11.004;2023-02-13T04:47:31;20.57;;;12.63;;
6823;SDS011;58633;49.470;11.004;2023-02-13T04:49:56;20.73;;;12.23;;
6823;SDS011;58633;49.470;11.004;2023-02-13T04:52:22;18.60;;;12.17;;
6823;SDS011;58633;49.470;11.004;2023-02-13T04:54:47;23.40;;;13.10;;
6823;SDS011;58633;49.470;11.004;2023-02-13T04:57:13;22.47;;;12.67;;
6823;SDS011;58633;49.470;11.004;2023-02-13T04:59:39;22.27;;;12.77;;
6823;SDS011;58633;49.470;11.004;2023-02-13T05:02:04;20.10;;;12.03;;
6823;SDS011;58633;49.470;11.004;2023-02-13T05:04:30;21.70;;;12.23;;
6823;SDS011;58633;49.470;11.004;2023-02-13T05:06:56;20.93;;;11.90;;
6823;SDS011;58633;49.470;11.004;2023-02-13T05:09:22;21.30;;;12.70;;
6823;SDS011;58633;49.470;11.004;2023-02-13T05:11:50;21.87;;;12.83;;
6823;SDS011;58633;49.470;11.004;2023-02-13T05:14:16;22.80;;;12.03;;
6823;SDS011;58633;49.470;11.004;2023-02-13T05:16:42;20.63;;;12.17;;
6823;SDS011;58633;49.470;11.004;2023-02-13T05:19:08;20.20;;;12.57;;
6823;SDS011;58633;49.470;11.004;2023-02-13T05:21:34;22.33;;;13.27;;
6823;SDS011;58633;49.470;11.004;2023-02-13T05:24:18;21.97;;;13.00;;
6823;SDS011;58633;49.470;11.004;2023-02-13T05:26:43;19.97;;;12.90;;
6823;SDS011;58633;49.470;11.004;2023-02-13T05:29:09;23.17;;;13.17;;
6823;SDS011;58633;49.470;11.004;2023-02-13T05:31:47;22.40;;;13.07;;
6823;SDS011;58633;49.470;11.004;2023-02-13T05:34:14;22.73;;;13.13;;
6823;SDS011;58633;49.470;11.004;2023-02-13T05:36:40;19.97;;;11.90;;
6823;SDS011;58633;49.470;11.004;2023-02-13T05:39:06;24.20;;;13.63;;
6823;SDS011;58633;49.470;11.004;2023-02-13T05:41:32;20.67;;;12.07;;
6823;SDS011;58633;49.470;11.004;2023-02-13T05:43:57;23.00;;;13.30;;
6823;SDS011;58633;49.470;11.004;2023-02-13T05:46:23;24.10;;;14.40;;
6823;SDS011;58633;49.470;11.004;2023-02-13T05:48:50;24.57;;;14.23;;
6823;SDS011;58633;49.470;11.004;2023-02-13T05:51:16;21.33;;;13.80;;
6823;SDS011;58633;49.470;11.004;2023-02-13T05:53:42;23.40;;;13.60;;
6823;SDS011;58633;49.470;11.004;2023-02-13T05:56:07;22.27;;;13.10;;
6823;SDS011;58633;49.470;11.004;2023-02-13T05:58:33;22.00;;;13.63;;
6823;SDS011;58633;49.470;11.004;2023-02-13T06:00:59;23.20;;;13.87;;
6823;SDS011;58633;49.470;11.004;2023-02-13T06:03:25;21.33;;;13.67;;
6823;SDS011;58633;49.470;11.004;2023-02-13T06:05:52;22.20;;;14.07;;
6823;SDS011;58633;49.470;11.004;2023-02-13T06:08:18;25.10;;;14.83;;
6823;SDS011;58633;49.470;11.004;2023-02-13T06:10:47;25.57;;;15.23;;
6823;SDS011;58633;49.470;11.004;2023-02-13T06:13:13;24.93;;;14.97;;
6823;SDS011;58633;49.470;11.004;2023-02-13T06:15:39;25.27;;;14.83;;
6823;SDS011;58633;49.470;11.004;2023-02-13T06:18:05;25.13;;;14.40;;
6823;SDS011;58633;49.470;11.004;2023-02-13T06:20:30;26.77;;;14.90;;
6823;SDS011;58633;49.470;11.004;2023-02-13T06:22:56;23.33;;;13.53;;
6823;SDS011;58633;49.470;11.004;2023-02-13T06:25:22;22.87;;;13.60;;
6823;SDS011;58633;49.470;11.004;2023-02-13T06:27:47;23.57;;;13.80;;
6823;SDS011;58633;49.470;11.004;2023-02-13T06:30:13;24.67;;;13.90;;
6823;SDS011;58633;49.470;11.004;2023-02-13T06:32:40;25.00;;;13.70;;
6823;SDS011;58633;49.470;11.004;2023-02-13T06:35:06;22.30;;;13.50;;
6823;SDS011;58633;49.470;11.004;2023-02-13T06:37:32;30.73;;;14.53;;
6823;SDS011;58633;49.470;11.004;2023-02-13T06:39:58;37.97;;;13.80;;
6823;SDS011;58633;49.470;11.004;2023-02-13T06:42:23;37.27;;;14.40;;
6823;SDS011;58633;49.470;11.004;2023-02-13T06:44:49;25.17;;;13.97;;
6823;SDS011;58633;49.470;11.004;2023-02-13T06:47:15;26.33;;;13.80;;
6823;SDS011;58633;49.470;11.004;2023-02-13T06:49:41;35.67;;;14.13;;
6823;SDS011;58633;49.470;11.004;2023-02-13T06:52:06;27.33;;;14.13;;
6823;SDS011;58633;49.470;11.004;2023-02-13T06:54:32;27.60;;;14.40;;
6823;SDS011;58633;49.470;11.004;2023-02-13T06:56:58;26.20;;;14.03;;
6823;SDS011;58633;49.470;11.004;2023-02-13T06:59:23;31.17;;;14.00;;
6823;SDS011;58633;49.470;11.004;2023-02-13T07:01:49;27.80;;;14.07;;
6823;SDS011;58633;49.470;11.004;2023-02-13T07:04:14;23.43;;;13.40;;
6823;SDS011;58633;49.470;11.004;2023-02-13T07:06:40;21.53;;;13.00;;
6823;SDS011;58633;49.470;11.004;2023-02-13T07:09:05;28.30;;;13.50;;
6823;SDS011;58633;49.470;11.004;2023-02-13T07:11:31;28.63;;;15.17;;
6823;SDS011;58633;49.470;11.004;2023-02-13T07:13:57;24.00;;;14.50;;
6823;SDS011;58633;49.470;11.004;2023-02-13T07:16:22;31.20;;;15.47;;
6823;SDS011;58633;49.470;11.004;2023-02-13T07:18:48;31.80;;;14.77;;
6823;SDS011;58633;49.470;11.004;2023-02-13T07:21:13;34.40;;;16.30;;
6823;SDS011;58633;49.470;11.004;2023-02-13T07:23:39;28.13;;;15.63;;
6823;SDS011;58633;49.470;11.004;2023-02-13T07:26:05;28.33;;;14.57;;
6823;SDS011;58633;49.470;11.004;2023-02-13T07:28:30;25.63;;;14.33;;
6823;SDS011;58633;49.470;11.004;2023-02-13T07:30:56;28.30;;;15.20;;
6823;SDS011;58633;49.470;11.004;2023-02-13T07:33:22;28.13;;;15.53;;
6823;SDS011;58633;49.470;11.004;2023-02-13T07:35:48;26.73;;;14.53;;
6823;SDS011;58633;49.470;11.004;2023-02-13T07:38:15;23.70;;;14.00;;
6823;SDS011;58633;49.470;11.004;2023-02-13T07:40:42;29.37;;;15.77;;
6823;SDS011;58633;49.470;11.004;2023-02-13T07:43:08;30.67;;;15.03;;
6823;SDS011;58633;49.470;11.004;2023-02-13T07:45:34;39.33;;;16.57;;
6823;SDS011;58633;49.470;11.004;2023-02-13T07:48:00;49.50;;;17.83;;
6823;SDS011;58633;49.470;11.004;2023-02-13T07:50:25;52.80;;;18.27;;
6823;SDS011;58633;49.470;11.004;2023-02-13T07:52:55;38.27;;;17.67;;
6823;SDS011;58633;49.470;11.004;2023-02-13T07:55:21;31.50;;;15.23;;
6823;SDS011;58633;49.470;11.004;2023-02-13T07:57:47;32.53;;;15.00;;
6823;SDS011;58633;49.470;11.004;2023-02-13T08:00:13;27.80;;;14.70;;
6823;SDS011;58633;49.470;11.004;2023-02-13T08:02:39;27.83;;;14.97;;
6823;SDS011;58633;49.470;11.004;2023-02-13T08:05:06;54.60;;;17.27;;
6823;SDS011;58633;49.470;11.004;2023-02-13T08:07:32;39.80;;;17.17;;
6823;SDS011;58633;49.470;11.004;2023-02-13T08:09:58;32.43;;;15.53;;
6823;SDS011;58633;49.470;11.004;2023-02-13T08:12:42;29.53;;;15.60;;
6823;SDS011;58633;49.470;11.004;2023-02-13T08:15:09;29.77;;;14.80;;
6823;SDS011;58633;49.470;11.004;2023-02-13T08:17:36;25.43;;;13.70;;
6823;SDS011;58633;49.470;11.004;2023-02-13T08:20:02;26.17;;;14.00;;
6823;SDS011;58633;49.470;11.004;2023-02-13T08:22:28;24.67;;;14.40;;
6823;SDS011;58633;49.470;11.004;2023-02-13T08:24:54;34.20;;;16.40;;
6823;SDS011;58633;49.470;11.004;2023-02-13T08:27:19;41.57;;;16.77;;
6823;SDS011;58633;49.470;11.004;2023-02-13T08:29:47;47.63;;;16.83;;
6823;SDS011;58633;49.470;11.004;2023-02-13T08:32:15;40.37;;;16.73;;
6823;SDS011;58633;49.470;11.004;2023-02-13T08:34:40;33.83;;;16.80;;
6823;SDS011;58633;49.470;11.004;2023-02-13T08:37:06;58.50;;;17.73;;
6823;SDS011;58633;49.470;11.004;2023-02-13T08:39:31;46.70;;;17.30;;
6823;SDS011;58633;49.470;11.004;2023-02-13T08:41:57;35.57;;;17.17;;
6823;SDS011;58633;49.470;11.004;2023-02-13T08:44:22;48.57;;;17.17;;
6823;SDS011;58633;49.470;11.004;2023-02-13T08:46:48;36.33;;;17.13;;
6823;SDS011;58633;49.470;11.004;2023-02-13T08:49:13;42.13;;;17.33;;
6823;SDS011;58633;49.470;11.004;2023-02-13T08:51:39;37.47;;;17.80;;
6823;SDS011;58633;49.470;11.004;2023-02-13T08:54:05;32.93;;;16.97;;
6823;SDS011;58633;49.470;11.004;2023-02-13T08:56:30;30.70;;;15.97;;
6823;SDS011;58633;49.470;11.004;2023-02-13T08:58:56;31.13;;;16.27;;
6823;SDS011;58633;49.470;11.004;2023-02-13T09:01:21;33.63;;;18.00;;
6823;SDS011;58633;49.470;11.004;2023-02-13T09:03:48;30.67;;;16.27;;
6823;SDS011;58633;49.470;11.004;2023-02-13T09:06:13;32.57;;;17.40;;
6823;SDS011;58633;49.470;11.004;2023-02-13T09:08:39;34.13;;;17.30;;
6823;SDS011;58633;49.470;11.004;2023-02-13T09:11:05;34.03;;;17.40;;
6823;SDS011;58633;49.470;11.004;2023-02-13T09:13:31;36.70;;;18.20;;
6823;SDS011;58633;49.470;11.004;2023-02-13T09:16:05;38.33;;;18.63;;
6823;SDS011;58633;49.470;11.004;2023-02-13T09:18:32;39.77;;;18.60;;
6823;SDS011;58633;49.470;11.004;2023-02-13T09:20:59;37.03;;;20.63;;
6823;SDS011;58633;49.470;11.004;2023-02-13T09:23:25;38.00;;;19.63;;
6823;SDS011;58633;49.470;11.004;2023-02-13T09:25:54;37.30;;;19.23;;
6823;SDS011;58633;49.470;11.004;2023-02-13T09:28:20;35.07;;;18.67;;
6823;SDS011;58633;49.470;11.004;2023-02-13T09:30:45;32.20;;;19.00;;
6823;SDS011;58633;49.470;11.004;2023-02-13T09:33:12;34.67;;;18.13;;
6823;SDS011;58633;49.470;11.004;2023-02-13T09:35:38;36.73;;;18.13;;
6823;SDS011;58633;49.470;11.004;2023-02-13T09:38:06;36.60;;;18.57;;
6823;SDS011;58633;49.470;11.004;2023-02-13T09:40:34;39.00;;;19.47;;
6823;SDS011;58633;49.470;11.004;2023-02-13T09:43:11;41.00;;;18.73;;
6823;SDS011;58633;49.470;11.004;2023-02-13T09:45:41;31.80;;;17.70;;
6823;SDS011;58633;49.470;11.004;2023-02-13T09:48:10;35.67;;;18.30;;
6823;SDS011;58633;49.470;11.004;2023-02-13T09:50:43;32.90;;;17.00;;
6823;SDS011;58633;49.470;11.004;2023-02-13T09:53:09;32.33;;;17.97;;
6823;SDS011;58633;49.470;11.004;2023-02-13T09:55:53;31.00;;;16.90;;
6823;SDS011;58633;49.470;11.004;2023-02-13T09:58:45;30.63;;;16.10;;
6823;SDS011;58633;49.470;11.004;2023-02-13T10:01:33;33.37;;;17.60;;
6823;SDS011;58633;49.470;11.004;2023-02-13T10:04:23;27.67;;;16.37;;
6823;SDS011;58633;49.470;11.004;2023-02-13T10:06:59;30.30;;;17.10;;
6823;SDS011;58633;49.470;11.004;2023-02-13T10:17:38;31.00;;;17.53;;
6823;SDS011;58633;49.470;11.004;2023-02-13T10:23:34;33.07;;;18.77;;
6823;SDS011;58633;49.470;11.004;2023-02-13T10:26:06;31.17;;;18.27;;
6823;SDS011;58633;49.470;11.004;2023-02-13T10:28:43;36.47;;;19.80;;
6823;SDS011;58633;49.470;11.004;2023-02-13T10:31:36;37.70;;;19.60;;
6823;SDS011;58633;49.470;11.004;2023-02-13T10:34:03;36.23;;;19.57;;
6823;SDS011;58633;49.470;11.004;2023-02-13T10:36:34;35.00;;;18.73;;
6823;SDS011;58633;49.470;11.004;2023-02-13T10:41:36;33.57;;;17.97;;
6823;SDS011;58633;49.470;11.004;2023-02-13T10:47:14;28.93;;;17.97;;
6823;SDS011;58633;49.470;11.004;2023-02-13T10:55:38;27.40;;;16.63;;
6823;SDS011;58633;49.470;11.004;2023-02-13T11:01:01;28.00;;;16.73;;
6823;SDS011;58633;49.470;11.004;2023-02-13T11:03:35;28.67;;;16.63;;
6823;SDS011;58633;49.470;11.004;2023-02-13T11:06:04;30.40;;;17.40;;
6823;SDS011;58633;49.470;11.004;2023-02-13T11:08:33;30.40;;;18.07;;
6823;SDS011;58633;49.470;11.004;2023-02-13T11:11:03;28.47;;;17.77;;
6823;SDS011;58633;49.470;11.004;2023-02-13T11:13:29;25.70;;;16.13;;
6823;SDS011;58633;49.470;11.004;2023-02-13T11:18:24;27.50;;;15.13;;
6823;SDS011;58633;49.470;11.004;2023-02-13T11:23:36;23.33;;;14.37;;
6823;SDS011;58633;49.470;11.004;2023-02-13T11:26:03;24.17;;;14.50;;
6823;SDS011;58633;49.470;11.004;2023-02-13T11:28:45;22.80;;;14.47;;
6823;SDS011;58633;49.470;11.004;2023-02-13T11:31:18;23.97;;;15.73;;
6823;SDS011;58633;49.470;11.004;2023-02-13T11:33:47;25.77;;;15.83;;
6823;SDS011;58633;49.470;11.004;2023-02-13T11:36:23;24.20;;;16.08;;
6823;SDS011;58633;49.470;11.004;2023-02-13T11:41:22;25.20;;;15.90;;
6823;SDS011;58633;49.470;11.004;2023-02-13T11:43:52;23.05;;;15.88;;
6823;SDS011;58633;49.470;11.004;2023-02-13T11:46:24;25.67;;;15.82;;
6823;SDS011;58633;49.470;11.004;2023-02-13T11:49:02;26.48;;;16.48;;
6823;SDS011;58633;49.470;11.004;2023-02-13T11:54:04;25.10;;;16.38;;
6823;SDS011;58633;49.470;11.004;2023-02-13T11:56:50;23.38;;;15.52;;
6823;SDS011;58633;49.470;11.004;2023-02-13T11:59:17;25.20;;;16.55;;
6823;SDS011;58633;49.470;11.004;2023-02-13T12:01:52;24.15;;;16.17;;
6823;SDS011;58633;49.470;11.004;2023-02-13T12:04:40;22.90;;;15.75;;
6823;SDS011;58633;49.470;11.004;2023-02-13T12:07:20;24.88;;;15.30;;
6823;SDS011;58633;49.470;11.004;2023-02-13T12:09:47;24.35;;;15.68;;
6823;SDS011;58633;49.470;11.004;2023-02-13T12:12:18;25.13;;;15.68;;
6823;SDS011;58633;49.470;11.004;2023-02-13T12:14:49;24.88;;;15.77;;
6823;SDS011;58633;49.470;11.004;2023-02-13T12:17:16;26.83;;;15.75;;
6823;SDS011;58633;49.470;11.004;2023-02-13T12:19:46;23.35;;;15.23;;
6823;SDS011;58633;49.470;11.004;2023-02-13T12:25:18;21.65;;;14.65;;
6823;SDS011;58633;49.470;11.004;2023-02-13T12:28:08;21.48;;;13.55;;
6823;SDS011;58633;49.470;11.004;2023-02-13T12:33:34;26.10;;;14.68;;
6823;SDS011;58633;49.470;11.004;2023-02-13T12:44:44;21.50;;;13.80;;
6823;SDS011;58633;49.470;11.004;2023-02-13T12:47:50;20.10;;;13.50;;
6823;SDS011;58633;49.470;11.004;2023-02-13T12:50:45;20.13;;;13.40;;
6823;SDS011;58633;49.470;11.004;2023-02-13T12:56:19;18.33;;;12.13;;
6823;SDS011;58633;49.470;11.004;2023-02-13T12:58:59;16.98;;;11.63;;
6823;SDS011;58633;49.470;11.004;2023-02-13T13:01:42;21.13;;;12.23;;
6823;SDS011;58633;49.470;11.004;2023-02-13T13:04:21;19.25;;;12.98;;
6823;SDS011;58633;49.470;11.004;2023-02-13T13:07:16;18.10;;;12.32;;
6823;SDS011;58633;49.470;11.004;2023-02-13T13:15:47;15.90;;;11.60;;
6823;SDS011;58633;49.470;11.004;2023-02-13T13:21:15;13.13;;;10.23;;
6823;SDS011;58633;49.470;11.004;2023-02-13T13:23:59;16.08;;;10.82;;
6823;SDS011;58633;49.470;11.004;2023-02-13T13:26:38;16.40;;;11.05;;
6823;SDS011;58633;49.470;11.004;2023-02-13T13:29:14;14.88;;;10.70;;
6823;SDS011;58633;49.470;11.004;2023-02-13T13:31:57;14.63;;;10.98;;
6823;SDS011;58633;49.470;11.004;2023-02-13T13:34:26;14.15;;;10.90;;
6823;SDS011;58633;49.470;11.004;2023-02-13T13:37:10;15.20;;;11.32;;
6823;SDS011;58633;49.470;11.004;2023-02-13T13:50:18;16.52;;;12.20;;
6823;SDS011;58633;49.470;11.004;2023-02-13T13:58:21;15.00;;;10.65;;
6823;SDS011;58633;49.470;11.004;2023-02-13T14:03:43;14.55;;;9.85;;
6823;SDS011;58633;49.470;11.004;2023-02-13T14:06:10;15.05;;;9.65;;
6823;SDS011;58633;49.470;11.004;2023-02-13T14:11:29;16.33;;;9.93;;
6823;SDS011;58633;49.470;11.004;2023-02-13T14:13:56;12.07;;;9.13;;
6823;SDS011;58633;49.470;11.004;2023-02-13T14:24:49;15.50;;;10.77;;
6823;SDS011;58633;49.470;11.004;2023-02-13T14:27:20;14.23;;;9.40;;
6823;SDS011;58633;49.470;11.004;2023-02-13T14:29:56;11.32;;;8.85;;
6823;SDS011;58633;49.470;11.004;2023-02-13T14:32:33;13.93;;;8.98;;
6823;SDS011;58633;49.470;11.004;2023-02-13T14:35:02;12.60;;;9.73;;
6823;SDS011;58633;49.470;11.004;2023-02-13T14:37:38;13.95;;;10.07;;
6823;SDS011;58633;49.470;11.004;2023-02-13T14:42:42;14.43;;;10.27;;
6823;SDS011;58633;49.470;11.004;2023-02-13T14:45:15;15.60;;;9.90;;
6823;SDS011;58633;49.470;11.004;2023-02-13T14:47:47;13.05;;;9.25;;
6823;SDS011;58633;49.470;11.004;2023-02-13T14:50:33;12.80;;;9.88;;
6823;SDS011;58633;49.470;11.004;2023-02-13T14:53:19;14.85;;;9.65;;
6823;SDS011;58633;49.470;11.004;2023-02-13T14:55:58;13.43;;;10.43;;
6823;SDS011;58633;49.470;11.004;2023-02-13T14:58:30;12.52;;;9.30;;
6823;SDS011;58633;49.470;11.004;2023-02-13T15:01:04;13.60;;;9.48;;
6823;SDS011;58633;49.470;11.004;2023-02-13T15:06:09;13.65;;;9.35;;
6823;SDS011;58633;49.470;11.004;2023-02-13T15:08:45;19.60;;;9.82;;
6823;SDS011;58633;49.470;11.004;2023-02-13T15:11:30;12.32;;;8.80;;
6823;SDS011;58633;49.470;11.004;2023-02-13T15:19:44;13.32;;;8.15;;
6823;SDS011;58633;49.470;11.004;2023-02-13T15:22:23;12.02;;;8.05;;
6823;SDS011;58633;49.470;11.004;2023-02-13T15:24:52;12.95;;;8.45;;
6823;SDS011;58633;49.470;11.004;2023-02-13T15:27:25;12.98;;;7.47;;
6823;SDS011;58633;49.470;11.004;2023-02-13T15:30:02;10.20;;;6.05;;
6823;SDS011;58633;49.470;11.004;2023-02-13T15:32:44;8.25;;;5.38;;
6823;SDS011;58633;49.470;11.004;2023-02-13T15:35:22;11.13;;;6.88;;
6823;SDS011;58633;49.470;11.004;2023-02-13T15:37:53;8.95;;;6.13;;
6823;SDS011;58633;49.470;11.004;2023-02-13T15:40:26;10.48;;;6.53;;
6823;SDS011;58633;49.470;11.004;2023-02-13T15:42:53;16.17;;;6.63;;
6823;SDS011;58633;49.470;11.004;2023-02-13T15:45:21;11.25;;;6.28;;
6823;SDS011;58633;49.470;11.004;2023-02-13T15:47:48;17.30;;;6.28;;
6823;SDS011;58633;49.470;11.004;2023-02-13T15:50:16;17.27;;;6.80;;
6823;SDS011;58633;49.470;11.004;2023-02-13T15:52:59;13.80;;;7.85;;
6823;SDS011;58633;49.470;11.004;2023-02-13T15:55:29;13.00;;;6.72;;
6823;SDS011;58633;49.470;11.004;2023-02-13T15:57:57;12.15;;;6.65;;
6823;SDS011;58633;49.470;11.004;2023-02-13T16:00:29;12.15;;;7.40;;
6823;SDS011;58633;49.470;11.004;2023-02-13T16:02:57;12.85;;;6.88;;
6823;SDS011;58633;49.470;11.004;2023-02-13T16:05:25;13.35;;;7.93;;
6823;SDS011;58633;49.470;11.004;2023-02-13T16:07:54;11.18;;;6.63;;
6823;SDS011;58633;49.470;11.004;2023-02-13T16:12:50;10.73;;;8.25;;
6823;SDS011;58633;49.470;11.004;2023-02-13T16:15:17;11.57;;;7.53;;
6823;SDS011;58633;49.470;11.004;2023-02-13T16:17:45;15.95;;;7.20;;
6823;SDS011;58633;49.470;11.004;2023-02-13T16:22:38;17.63;;;9.70;;
6823;SDS011;58633;49.470;11.004;2023-02-13T16:27:30;11.82;;;7.72;;
6823;SDS011;58633;49.470;11.004;2023-02-13T16:29:59;8.27;;;6.57;;
6823;SDS011;58633;49.470;11.004;2023-02-13T16:32:27;10.82;;;7.68;;
6823;SDS011;58633;49.470;11.004;2023-02-13T16:34:56;14.73;;;7.35;;
6823;SDS011;58633;49.470;11.004;2023-02-13T16:37:46;8.73;;;6.85;;
6823;SDS011;58633;49.470;11.004;2023-02-13T16:40:33;10.25;;;7.40;;
6823;SDS011;58633;49.470;11.004;2023-02-13T16:48:46;12.50;;;7.03;;
6823;SDS011;58633;49.470;11.004;2023-02-13T16:52:09;11.43;;;7.35;;
6823;SDS011;58633;49.470;11.004;2023-02-13T16:54:16;11.80;;;7.15;;
6823;SDS011;58633;49.470;11.004;2023-02-13T16:56:50;12.30;;;6.97;;
6823;SDS011;58633;49.470;11.004;2023-02-13T17:05:28;11.77;;;7.47;;
6823;SDS011;58633;49.470;11.004;2023-02-13T17:07:44;12.82;;;7.60;;
6823;SDS011;58633;49.470;11.004;2023-02-13T17:12:43;13.80;;;7.47;;
6823;SDS011;58633;49.470;11.004;2023-02-13T17:15:14;13.65;;;8.43;;
6823;SDS011;58633;49.470;11.004;2023-02-13T17:17:43;14.02;;;9.40;;
6823;SDS011;58633;49.470;11.004;2023-02-13T17:20:20;11.68;;;7.65;;
6823;SDS011;58633;49.470;11.004;2023-02-13T17:22:49;10.55;;;7.38;;
6823;SDS011;58633;49.470;11.004;2023-02-13T17:25:17;14.48;;;8.40;;
6823;SDS011;58633;49.470;11.004;2023-02-13T17:27:45;14.48;;;8.50;;
6823;SDS011;58633;49.470;11.004;2023-02-13T17:30:15;11.43;;;8.02;;